createdAt,value
2023-04-11T00:00:16.698Z,95160.81
2023-04-11T00:02:43.686Z,95171.19
2023-04-11T00:05:10.441Z,95160.06
2023-04-11T00:07:37.061Z,95162.31
2023-04-11T00:10:04.289Z,95164.19
2023-04-11T00:12:30.860Z,95158.69
2023-04-11T00:14:57.413Z,95178.53
2023-04-11T00:17:24.331Z,95166.53
2023-04-11T00:19:53.582Z,95158.19
2023-04-11T00:22:20.156Z,95158.03
2023-04-11T00:24:46.684Z,95162.84
2023-04-11T00:27:13.238Z,95166.06
2023-04-11T00:29:40.610Z,95168.63
2023-04-11T00:32:07.324Z,95163.84
2023-04-11T00:34:34.339Z,95191.41
2023-04-11T00:37:01.698Z,95166.06
2023-04-11T00:39:30.474Z,95140.66
2023-04-11T00:42:05.650Z,95134.50
2023-04-11T00:44:32.312Z,95102.50
2023-04-11T00:47:00.460Z,95079.00
2023-04-11T00:49:27.117Z,95074.75
2023-04-11T00:51:54.372Z,95087.63
2023-04-11T00:54:21.121Z,95082.78
2023-04-11T00:56:47.861Z,95092.25
2023-04-11T00:59:14.464Z,95099.94
2023-04-11T01:01:41.774Z,95101.88
2023-04-11T01:04:08.710Z,95090.16
2023-04-11T01:06:36.500Z,95102.69
2023-04-11T01:09:04.938Z,95108.53
2023-04-11T01:11:32.644Z,95107.88
2023-04-11T01:13:59.238Z,95101.38
2023-04-11T01:16:25.940Z,95095.69
2023-04-11T01:18:52.580Z,95095.25
2023-04-11T01:21:20.630Z,95085.81
2023-04-11T01:23:48.923Z,95092.50
2023-04-11T01:26:16.236Z,95100.19
2023-04-11T01:28:42.867Z,95096.84
2023-04-11T01:31:09.550Z,95100.72
2023-04-11T01:33:36.482Z,95100.28
2023-04-11T01:36:03.666Z,95097.03
2023-04-11T01:38:30.421Z,95100.22
2023-04-11T01:40:58.200Z,95093.47
2023-04-11T01:43:24.796Z,95085.19
2023-04-11T01:45:51.780Z,95089.66
2023-04-11T01:48:18.396Z,95101.63
2023-04-11T01:50:45.043Z,95097.06
2023-04-11T01:53:11.593Z,95094.88
2023-04-11T01:55:38.252Z,95089.84
2023-04-11T01:58:04.749Z,95083.16
2023-04-11T02:00:32.565Z,95087.28
2023-04-11T02:02:59.286Z,95083.41
2023-04-11T02:05:25.935Z,95077.34
2023-04-11T02:07:52.766Z,95087.09
2023-04-11T02:10:19.638Z,95073.63
2023-04-11T02:12:46.314Z,95085.66
2023-04-11T02:15:12.877Z,95087.75
2023-04-11T02:17:45.087Z,95084.66
2023-04-11T02:20:13.596Z,95071.91
2023-04-11T02:22:40.877Z,95075.75
2023-04-11T02:25:08.187Z,95078.97
2023-04-11T02:27:34.983Z,95080.88
2023-04-11T02:30:05.732Z,95071.88
2023-04-11T02:32:37.833Z,95081.38
2023-04-11T02:35:05.298Z,95097.94
2023-04-11T02:37:31.856Z,95110.00
2023-04-11T02:39:58.537Z,95116.88
2023-04-11T02:42:25.108Z,95108.06
2023-04-11T02:44:55.673Z,95091.94
2023-04-11T02:47:22.265Z,95109.53
2023-04-11T02:49:48.919Z,95116.63
2023-04-11T02:52:15.904Z,95116.56
2023-04-11T02:54:42.482Z,95107.44
2023-04-11T02:57:09.046Z,95107.78
2023-04-11T02:59:35.596Z,95098.78
2023-04-11T03:02:02.220Z,95101.09
2023-04-11T03:04:29.041Z,95094.13
2023-04-11T03:06:55.707Z,95110.75
2023-04-11T03:09:23.498Z,95109.88
2023-04-11T03:11:50.172Z,95100.03
2023-04-11T03:14:16.818Z,95096.75
2023-04-11T03:16:43.384Z,95105.31
2023-04-11T03:19:09.877Z,95103.81
2023-04-11T03:21:36.345Z,95103.84
2023-04-11T03:24:03.027Z,95064.81
2023-04-11T03:26:29.630Z,95104.81
2023-04-11T03:28:56.650Z,95092.72
2023-04-11T03:31:23.570Z,95079.91
2023-04-11T03:33:50.282Z,95060.94
2023-04-11T03:36:17.268Z,95065.06
2023-04-11T03:38:43.782Z,95060.97
2023-04-11T03:41:10.513Z,95071.91
2023-04-11T03:43:37.129Z,95077.38
2023-04-11T03:46:03.812Z,95075.31
2023-04-11T03:48:31.042Z,95060.19
2023-04-11T03:50:57.602Z,95069.25
2023-04-11T03:53:24.173Z,95063.13
2023-04-11T03:55:52.789Z,95057.84
2023-04-11T03:58:19.288Z,95053.00
2023-04-11T04:00:46.538Z,95062.38
2023-04-11T04:03:13.792Z,95066.13
2023-04-11T04:05:41.469Z,95071.38
2023-04-11T04:08:08.373Z,95100.72
2023-04-11T04:10:34.926Z,95106.47
2023-04-11T04:13:01.617Z,95121.84
2023-04-11T04:15:28.205Z,95128.25
2023-04-11T04:17:54.837Z,95135.59
2023-04-11T04:20:21.529Z,95134.22
2023-04-11T04:22:48.078Z,95150.16
2023-04-11T04:25:15.956Z,95149.31
2023-04-11T04:27:44.474Z,95144.81
2023-04-11T04:30:15.741Z,95146.47
2023-04-11T04:32:44.086Z,95162.34
2023-04-11T04:35:11.798Z,95169.06
2023-04-11T04:37:45.827Z,95162.97
2023-04-11T04:40:14.005Z,95169.50
2023-04-11T04:42:44.082Z,95168.41
2023-04-11T04:45:13.720Z,95168.06
2023-04-11T04:47:40.584Z,95166.94
2023-04-11T04:50:07.847Z,95180.22
2023-04-11T04:52:34.770Z,95170.41
2023-04-11T04:55:01.703Z,95183.50
2023-04-11T04:57:29.545Z,95182.41
2023-04-11T04:59:58.836Z,95177.97
2023-04-11T05:02:26.857Z,95177.22
2023-04-11T05:04:54.451Z,95181.34
2023-04-11T05:07:21.040Z,95175.31
2023-04-11T05:09:47.777Z,95179.84
2023-04-11T05:12:16.065Z,95186.63
2023-04-11T05:14:42.958Z,95170.41
2023-04-11T05:17:09.542Z,95189.63
2023-04-11T05:19:36.136Z,95203.94
2023-04-11T05:22:02.798Z,95188.91
2023-04-11T05:24:29.354Z,95191.94
2023-04-11T05:26:56.763Z,95188.16
2023-04-11T05:29:23.411Z,95181.75
2023-04-11T05:31:49.976Z,95194.16
2023-04-11T05:34:16.534Z,95207.72
2023-04-11T05:36:43.131Z,95214.53
2023-04-11T05:39:09.703Z,95213.34
2023-04-11T05:41:36.245Z,95199.44
2023-04-11T05:44:02.895Z,95212.97
2023-04-11T05:46:30.092Z,95212.25
2023-04-11T05:48:58.052Z,95201.34
2023-04-11T05:51:24.771Z,95205.09
2023-04-11T05:53:51.276Z,95210.34
2023-04-11T05:56:17.993Z,95196.81
2023-04-11T05:58:44.599Z,95210.75
2023-04-11T06:01:18.273Z,95197.19
2023-04-11T06:03:46.303Z,95193.44
2023-04-11T06:06:13.408Z,95201.34
2023-04-11T06:08:40.353Z,95194.16
2023-04-11T06:11:07.004Z,95192.28
2023-04-11T06:13:33.482Z,95195.66
2023-04-11T06:16:00.264Z,95198.66
2023-04-11T06:18:26.821Z,95213.38
2023-04-11T06:20:53.971Z,95212.19
2023-04-11T06:23:20.653Z,95214.50
2023-04-11T06:25:47.287Z,95219.00
2023-04-11T06:28:14.212Z,95223.50
2023-04-11T06:30:40.839Z,95224.28
2023-04-11T06:33:07.445Z,95210.63
2023-04-11T06:35:34.071Z,95220.50
2023-04-11T06:38:00.730Z,95222.69
2023-04-11T06:40:27.256Z,95218.63
2023-04-11T06:42:53.874Z,95224.66
2023-04-11T06:45:20.662Z,95231.03
2023-04-11T06:47:47.218Z,95224.25
2023-04-11T06:50:13.862Z,95227.56
2023-04-11T06:52:40.408Z,95234.38
2023-04-11T06:55:07.660Z,95231.69
2023-04-11T06:57:34.392Z,95247.53
2023-04-11T07:00:00.952Z,95249.09
2023-04-11T07:02:27.663Z,95248.69
2023-04-11T07:04:54.397Z,95253.56
2023-04-11T07:07:21.406Z,95264.44
2023-04-11T07:09:48.157Z,95273.03
2023-04-11T07:12:14.691Z,95290.28
2023-04-11T07:14:41.253Z,95291.81
2023-04-11T07:17:07.792Z,95298.72
2023-04-11T07:19:34.409Z,95293.81
2023-04-11T07:22:00.964Z,95295.81
2023-04-11T07:24:30.516Z,95299.56
2023-04-11T07:26:58.848Z,95306.69
2023-04-11T07:29:25.407Z,95300.66
2023-04-11T07:31:52.800Z,95300.19
2023-04-11T07:34:19.404Z,95306.16
2023-04-11T07:36:45.981Z,95288.94
2023-04-11T07:39:14.205Z,95319.84
2023-04-11T07:41:40.865Z,95318.41
2023-04-11T07:44:07.901Z,95334.22
2023-04-11T07:46:34.438Z,95325.84
2023-04-11T07:49:01.287Z,95317.19
2023-04-11T07:51:27.894Z,95315.25
2023-04-11T07:53:54.702Z,95321.34
2023-04-11T07:56:21.383Z,95330.41
2023-04-11T07:58:47.966Z,95336.06
2023-04-11T08:01:25.155Z,95324.78
2023-04-11T08:03:53.798Z,95320.34
2023-04-11T08:06:20.931Z,95311.56
2023-04-11T08:08:48.618Z,95324.75
2023-04-11T08:11:16.056Z,95322.81
2023-04-11T08:13:43.917Z,95324.34
2023-04-11T08:16:11.902Z,95315.31
2023-04-11T08:18:42.228Z,95317.53
2023-04-11T08:21:12.696Z,95312.22
2023-04-11T08:23:39.975Z,95322.66
2023-04-11T08:26:07.692Z,95327.16
2023-04-11T08:28:34.557Z,95329.50
2023-04-11T08:31:04.006Z,95323.22
2023-04-11T08:33:30.908Z,95329.06
2023-04-11T08:35:57.608Z,95327.16
2023-04-11T08:38:24.320Z,95330.63
2023-04-11T08:40:51.491Z,95338.91
2023-04-11T08:43:19.067Z,95331.66
2023-04-11T08:45:45.892Z,95332.09
2023-04-11T08:48:12.614Z,95334.25
2023-04-11T08:50:41.576Z,95345.59
2023-04-11T08:53:08.800Z,95345.28
2023-04-11T08:55:36.004Z,95345.81
2023-04-11T08:58:03.797Z,95348.34
2023-04-11T09:00:32.398Z,95352.38
2023-04-11T09:03:01.760Z,95369.19
2023-04-11T09:05:30.858Z,95369.94
2023-04-11T09:07:59.139Z,95371.78
2023-04-11T09:10:27.098Z,95380.03
2023-04-11T09:12:57.256Z,95377.44
2023-04-11T09:15:26.446Z,95383.03
2023-04-11T09:17:54.161Z,95379.34
2023-04-11T09:20:22.404Z,95371.53
2023-04-11T09:22:50.184Z,95373.06
2023-04-11T09:25:18.553Z,95364.13
2023-04-11T09:27:45.496Z,95351.34
2023-04-11T09:30:22.845Z,95349.50
2023-04-11T09:32:53.195Z,95353.34
2023-04-11T09:35:25.117Z,95355.00
2023-04-11T09:37:59.186Z,95347.09
2023-04-11T09:40:27.633Z,95353.13
2023-04-11T09:42:58.605Z,95347.72
2023-04-11T09:45:27.082Z,95343.75
2023-04-11T09:47:56.764Z,95341.25
2023-04-11T09:50:24.496Z,95328.88
2023-04-11T09:52:52.886Z,95340.44
2023-04-11T09:55:21.168Z,95345.91
2023-04-11T09:57:50.474Z,95333.66
2023-04-11T10:00:20.157Z,95344.47
2023-04-11T10:02:49.458Z,95344.38
2023-04-11T10:05:18.246Z,95348.84
2023-04-11T10:07:52.380Z,95361.88
2023-04-11T10:10:21.215Z,95344.19
2023-04-11T10:12:48.855Z,95358.41
2023-04-11T10:15:16.174Z,95343.91
2023-04-11T10:17:43.075Z,95367.69
2023-04-11T10:20:49.809Z,95368.22
2023-04-11T10:23:17.259Z,95355.78
2023-04-11T10:25:50.661Z,95353.84
2023-04-11T10:28:37.850Z,95360.78
2023-04-11T10:31:05.912Z,95354.25
2023-04-11T10:33:33.607Z,95352.75
2023-04-11T10:36:11.007Z,95352.28
2023-04-11T10:38:44.182Z,95359.00
2023-04-11T10:41:20.076Z,95340.66
2023-04-11T10:43:47.295Z,95348.84
2023-04-11T10:46:22.393Z,95350.66
2023-04-11T10:49:04.139Z,95351.16
2023-04-11T10:51:34.787Z,95362.81
2023-04-11T10:54:02.142Z,95351.72
2023-04-11T10:56:42.721Z,95357.78
2023-04-11T10:59:31.452Z,95354.97
2023-04-11T11:02:00.798Z,95346.41
2023-04-11T11:04:38.697Z,95343.72
2023-04-11T11:07:08.360Z,95351.97
2023-04-11T11:09:35.501Z,95345.66
2023-04-11T11:12:15.694Z,95343.56
2023-04-11T11:14:44.247Z,95346.38
2023-04-11T11:17:15.909Z,95356.34
2023-04-11T11:19:47.182Z,95353.00
2023-04-11T11:22:18.432Z,95357.34
2023-04-11T11:24:45.081Z,95361.81
2023-04-11T11:27:29.750Z,95369.00
2023-04-11T11:29:56.266Z,95365.31
2023-04-11T11:32:29.998Z,95370.56
2023-04-11T11:34:57.732Z,95366.19
2023-04-11T11:37:24.983Z,95376.16
2023-04-11T11:39:51.816Z,95375.78
2023-04-11T11:42:18.617Z,95368.13
2023-04-11T11:44:45.185Z,95377.81
2023-04-11T11:47:15.397Z,95371.59
2023-04-11T11:49:55.550Z,95362.25
2023-04-11T11:52:34.186Z,95354.00
2023-04-11T11:55:02.390Z,95353.47
2023-04-11T11:57:28.957Z,95351.09
2023-04-11T11:59:56.607Z,95352.59
2023-04-11T12:02:24.446Z,95366.09
2023-04-11T12:04:51.836Z,95359.81
2023-04-11T12:07:22.734Z,95354.22
2023-04-11T12:09:49.716Z,95354.13
2023-04-11T12:12:19.015Z,95354.56
2023-04-11T12:14:54.978Z,95344.53
2023-04-11T12:17:21.580Z,95336.19
2023-04-11T12:19:48.189Z,95325.50
2023-04-11T12:22:14.735Z,95327.44
2023-04-11T12:24:41.330Z,95338.81
2023-04-11T12:27:09.050Z,95334.78
2023-04-11T12:29:37.186Z,95334.03
2023-04-11T12:32:03.981Z,95340.78
2023-04-11T12:34:30.507Z,95341.28
2023-04-11T12:36:58.086Z,95327.13
2023-04-11T12:39:24.627Z,95327.91
2023-04-11T12:41:51.177Z,95313.63
2023-04-11T12:44:17.765Z,95315.25
2023-04-11T12:46:44.384Z,95325.09
2023-04-11T12:49:10.961Z,95331.34
2023-04-11T12:51:37.512Z,95336.69
2023-04-11T12:54:04.821Z,95338.31
2023-04-11T12:56:31.370Z,95348.75
2023-04-11T12:58:58.091Z,95325.69
2023-04-11T13:01:24.854Z,95322.06
2023-04-11T13:03:51.571Z,95322.78
2023-04-11T13:06:19.095Z,95314.72
2023-04-11T13:08:45.739Z,95321.78
2023-04-11T13:11:12.306Z,95311.19
2023-04-11T13:13:38.830Z,95298.56
2023-04-11T13:16:06.519Z,95303.03
2023-04-11T13:18:33.017Z,95295.66
2023-04-11T13:20:59.477Z,95294.56
2023-04-11T13:23:25.995Z,95307.38
2023-04-11T13:25:52.679Z,95300.06
2023-04-11T13:28:19.384Z,95300.22
2023-04-11T13:30:46.358Z,95290.00
2023-04-11T13:33:12.863Z,95288.25
2023-04-11T13:35:39.355Z,95275.22
2023-04-11T13:38:05.888Z,95276.38
2023-04-11T13:40:32.847Z,95279.03
2023-04-11T13:42:59.381Z,95271.09
2023-04-11T13:45:26.130Z,95272.25
2023-04-11T13:47:52.653Z,95266.53
2023-04-11T13:50:19.168Z,95258.19
2023-04-11T13:52:45.684Z,95260.34
2023-04-11T13:55:12.267Z,95252.59
2023-04-11T13:57:38.760Z,95265.28
2023-04-11T14:00:11.882Z,95258.59
2023-04-11T14:02:41.909Z,95256.69
2023-04-11T14:05:09.529Z,95264.13
2023-04-11T14:07:36.092Z,95257.25
2023-04-11T14:10:02.738Z,95254.19
2023-04-11T14:12:29.278Z,95258.25
2023-04-11T14:14:55.941Z,95243.16
2023-04-11T14:17:22.496Z,95256.91
2023-04-11T14:19:49.054Z,95253.09
2023-04-11T14:22:15.777Z,95244.16
2023-04-11T14:24:42.470Z,95257.72
2023-04-11T14:27:09.289Z,95251.16
2023-04-11T14:29:37.539Z,95254.53
2023-04-11T14:32:04.774Z,95244.28
2023-04-11T14:34:31.593Z,95241.63
2023-04-11T14:36:58.118Z,95240.94
2023-04-11T14:39:24.695Z,95240.19
2023-04-11T14:41:51.271Z,95239.59
2023-04-11T14:44:17.878Z,95235.69
2023-04-11T14:46:44.472Z,95228.03
2023-04-11T14:49:11.609Z,95223.91
2023-04-11T14:51:38.778Z,95216.19
2023-04-11T14:54:05.642Z,95206.47
2023-04-11T14:56:32.404Z,95214.00
2023-04-11T14:58:58.996Z,95208.31
2023-04-11T15:01:25.597Z,95206.81
2023-04-11T15:03:52.265Z,95201.69
2023-04-11T15:06:18.994Z,95202.78
2023-04-11T15:08:45.824Z,95199.00
2023-04-11T15:11:12.474Z,95191.94
2023-04-11T15:13:39.070Z,95191.69
2023-04-11T15:16:06.572Z,95198.38
2023-04-11T15:18:33.392Z,95185.03
2023-04-11T15:21:01.937Z,95185.06
2023-04-11T15:23:28.764Z,95180.16
2023-04-11T15:25:57.406Z,95176.91
2023-04-11T15:28:25.433Z,95171.06
2023-04-11T15:30:53.833Z,95174.09
2023-04-11T15:33:22.136Z,95179.31
2023-04-11T15:35:48.811Z,95174.56
2023-04-11T15:38:16.303Z,95182.50
2023-04-11T15:40:43.472Z,95183.41
2023-04-11T15:43:10.413Z,95177.88
2023-04-11T15:45:39.676Z,95166.75
2023-04-11T15:48:06.658Z,95174.94
2023-04-11T15:50:33.293Z,95168.38
2023-04-11T15:52:59.901Z,95169.47
2023-04-11T15:55:26.513Z,95160.06
2023-04-11T15:57:53.194Z,95166.78
2023-04-11T16:00:22.332Z,95160.59
2023-04-11T16:02:49.848Z,95155.38
2023-04-11T16:05:17.044Z,95161.38
2023-04-11T16:07:43.754Z,95156.41
2023-04-11T16:10:10.648Z,95168.41
2023-04-11T16:12:37.500Z,95153.16
2023-04-11T16:15:05.688Z,95153.97
2023-04-11T16:17:32.806Z,95145.94
2023-04-11T16:19:59.792Z,95150.53
2023-04-11T16:22:26.389Z,95150.53
2023-04-11T16:24:52.941Z,95154.59
2023-04-11T16:27:20.064Z,95146.81
2023-04-11T16:29:46.754Z,95142.22
2023-04-11T16:32:13.284Z,95141.13
2023-04-11T16:34:40.017Z,95142.53
2023-04-11T16:37:06.735Z,95146.53
2023-04-11T16:39:33.437Z,95136.72
2023-04-11T16:42:00.044Z,95131.06
2023-04-11T16:44:26.648Z,95128.50
2023-04-11T16:46:53.344Z,95124.66
2023-04-11T16:49:19.881Z,95124.75
2023-04-11T16:51:46.507Z,95127.34
2023-04-11T16:54:13.808Z,95121.69
2023-04-11T16:56:40.782Z,95113.03
2023-04-11T16:59:07.522Z,95123.63
2023-04-11T17:01:34.290Z,95117.75
2023-04-11T17:04:01.595Z,95115.94
2023-04-11T17:06:28.710Z,95115.59
2023-04-11T17:08:57.547Z,95106.63
2023-04-11T17:11:24.725Z,95108.69
2023-04-11T17:13:51.554Z,95109.50
2023-04-11T17:16:18.347Z,95104.13
2023-04-11T17:18:44.936Z,95104.66
2023-04-11T17:21:11.603Z,95099.34
2023-04-11T17:23:43.073Z,95106.75
2023-04-11T17:26:10.762Z,95101.47
2023-04-11T17:28:38.490Z,95106.78
2023-04-11T17:31:12.983Z,95108.28
2023-04-11T17:33:40.068Z,95105.28
2023-04-11T17:36:07.010Z,95102.38
2023-04-11T17:38:33.624Z,95108.94
2023-04-11T17:41:11.173Z,95118.81
2023-04-11T17:43:41.346Z,95113.69
2023-04-11T17:46:08.908Z,95109.06
2023-04-11T17:48:36.882Z,95111.31
2023-04-11T17:51:06.829Z,95113.53
2023-04-11T17:53:33.660Z,95109.75
2023-04-11T17:56:06.571Z,95110.66
2023-04-11T17:58:42.418Z,95110.50
2023-04-11T18:01:11.178Z,95107.44
2023-04-11T18:03:38.556Z,95104.63
2023-04-11T18:06:06.438Z,95102.19
2023-04-11T18:08:49.044Z,95095.00
2023-04-11T18:11:17.498Z,95101.13
2023-04-11T18:13:44.165Z,95105.69
2023-04-11T18:16:11.559Z,95103.09
2023-04-11T18:18:38.236Z,95099.97
2023-04-11T18:21:06.698Z,95103.97
2023-04-11T18:23:34.096Z,95098.94
2023-04-11T18:26:00.614Z,95089.28
2023-04-11T18:28:27.294Z,95084.06
2023-04-11T18:30:53.995Z,95090.72
2023-04-11T18:33:20.882Z,95095.00
2023-04-11T18:35:47.788Z,95091.28
2023-04-11T18:38:14.671Z,95089.03
2023-04-11T18:40:41.332Z,95099.38
2023-04-11T18:43:08.252Z,95105.78
2023-04-11T18:45:35.334Z,95099.00
2023-04-11T18:48:02.300Z,95094.84
2023-04-11T18:50:30.774Z,95107.22
2023-04-11T18:53:03.626Z,95094.44
2023-04-11T18:55:31.840Z,95105.38
2023-04-11T18:58:00.347Z,95107.59
2023-04-11T19:00:29.480Z,95102.00
2023-04-11T19:02:56.395Z,95089.84
2023-04-11T19:05:25.514Z,95091.91
2023-04-11T19:07:52.879Z,95090.66
2023-04-11T19:10:19.781Z,95081.97
2023-04-11T19:12:46.382Z,95092.16
2023-04-11T19:15:13.051Z,95103.81
2023-04-11T19:17:39.756Z,95106.59
2023-04-11T19:20:07.316Z,95104.38
2023-04-11T19:22:35.980Z,95094.47
2023-04-11T19:25:02.613Z,95097.16
2023-04-11T19:27:29.376Z,95101.47
2023-04-11T19:29:56.916Z,95101.38
2023-04-11T19:32:23.582Z,95094.66
2023-04-11T19:34:50.644Z,95091.94
2023-04-11T19:37:20.117Z,95090.09
2023-04-11T19:39:46.663Z,95077.22
2023-04-11T19:42:13.243Z,95085.66
2023-04-11T19:44:40.025Z,95080.38
2023-04-11T19:47:06.864Z,95084.44
2023-04-11T19:49:33.486Z,95084.28
2023-04-11T19:52:00.178Z,95075.00
2023-04-11T19:54:26.895Z,95073.50
2023-04-11T19:56:53.552Z,95076.88
2023-04-11T19:59:20.353Z,95065.25
2023-04-11T20:01:46.978Z,95072.28
2023-04-11T20:04:15.701Z,95071.25
2023-04-11T20:06:44.310Z,95066.41
2023-04-11T20:09:11.858Z,95081.50
2023-04-11T20:11:39.600Z,95061.16
2023-04-11T20:14:07.720Z,95063.38
2023-04-11T20:16:34.363Z,95054.44
2023-04-11T20:19:01.727Z,95054.34
2023-04-11T20:21:28.556Z,95055.47
2023-04-11T20:23:55.344Z,95050.25
2023-04-11T20:26:22.549Z,95051.41
2023-04-11T20:28:50.452Z,95033.63
2023-04-11T20:31:17.222Z,95032.59
2023-04-11T20:33:45.434Z,95031.09
2023-04-11T20:36:12.626Z,95030.75
2023-04-11T20:38:39.228Z,95033.00
2023-04-11T20:41:06.331Z,95021.72
2023-04-11T20:43:33.034Z,95029.56
2023-04-11T20:46:00.154Z,95026.53
2023-04-11T20:48:30.307Z,95027.69
2023-04-11T20:50:56.935Z,95011.88
2023-04-11T20:53:23.686Z,95017.16
2023-04-11T20:55:50.916Z,95003.19
2023-04-11T20:58:20.712Z,94998.91
2023-04-11T21:00:47.709Z,94999.03
2023-04-11T21:03:14.540Z,95009.16
2023-04-11T21:05:44.288Z,95005.06
2023-04-11T21:08:13.975Z,95008.16
2023-04-11T21:10:40.846Z,94999.78
2023-04-11T21:13:07.410Z,94993.03
2023-04-11T21:15:34.996Z,95001.34
2023-04-11T21:18:02.069Z,94986.56
2023-04-11T21:20:28.824Z,94992.41
2023-04-11T21:22:55.730Z,94985.66
2023-04-11T21:25:23.533Z,94985.28
2023-04-11T21:27:50.333Z,94986.34
2023-04-11T21:30:17.173Z,94980.69
2023-04-11T21:32:43.902Z,94978.50
2023-04-11T21:35:11.975Z,94972.09
2023-04-11T21:37:38.987Z,94970.63
2023-04-11T21:40:08.621Z,94979.50
2023-04-11T21:42:35.315Z,94963.06
2023-04-11T21:45:01.940Z,94958.84
2023-04-11T21:47:28.684Z,94965.91
2023-04-11T21:49:55.396Z,94955.00
2023-04-11T21:52:22.033Z,94958.09
2023-04-11T21:54:48.584Z,94951.63
2023-04-11T21:57:15.231Z,94954.41
2023-04-11T21:59:41.928Z,94948.66
2023-04-11T22:02:08.655Z,94945.56
2023-04-11T22:04:41.313Z,94940.97
2023-04-11T22:07:15.596Z,94942.97
2023-04-11T22:09:46.609Z,94934.31
2023-04-11T22:12:17.440Z,94928.63
2023-04-11T22:14:44.140Z,94940.25
2023-04-11T22:17:11.007Z,94932.78
2023-04-11T22:19:37.552Z,94935.78
2023-04-11T22:22:08.221Z,94923.66
2023-04-11T22:24:35.022Z,94914.03
2023-04-11T22:27:04.540Z,94912.56
2023-04-11T22:29:31.482Z,94922.13
2023-04-11T22:31:59.549Z,94896.69
2023-04-11T22:34:32.472Z,94905.06
2023-04-11T22:36:59.090Z,94913.53
2023-04-11T22:39:25.954Z,94914.69
2023-04-11T22:41:53.437Z,94899.03
2023-04-11T22:44:20.907Z,94894.44
2023-04-11T22:47:08.102Z,94898.13
2023-04-11T22:49:41.023Z,94893.75
2023-04-11T22:52:09.361Z,94886.25
2023-04-11T22:54:36.148Z,94882.41
2023-04-11T22:57:02.768Z,94873.78
2023-04-11T22:59:29.346Z,94853.09
2023-04-11T23:01:55.974Z,94862.00
2023-04-11T23:04:22.839Z,94848.13
2023-04-11T23:06:53.573Z,94846.50
2023-04-11T23:09:21.127Z,94847.06
2023-04-11T23:11:47.860Z,94836.97
2023-04-11T23:14:15.511Z,94847.69
2023-04-11T23:16:43.456Z,94844.16
2023-04-11T23:19:10.897Z,94829.91
2023-04-11T23:21:37.892Z,94811.50
2023-04-11T23:24:06.718Z,94818.38
2023-04-11T23:26:33.574Z,94812.34
2023-04-11T23:29:02.514Z,94809.34
2023-04-11T23:31:30.223Z,94805.09
2023-04-11T23:33:57.053Z,94803.28
2023-04-11T23:36:23.869Z,94797.28
2023-04-11T23:38:50.700Z,94807.72
2023-04-11T23:41:17.253Z,94801.84
2023-04-11T23:43:43.854Z,94795.09
2023-04-11T23:46:11.070Z,94775.50
2023-04-11T23:48:37.735Z,94784.66
2023-04-11T23:51:04.614Z,94766.66
2023-04-11T23:53:31.781Z,94766.63
2023-04-11T23:55:58.451Z,94753.09
2023-04-11T23:58:25.000Z,94758.19
